Time;durP1;ratioP1;P1;durP2;ratioP2;P2;SDS_P1;SDS_P2;PMS_P1;PMS_P2;Temp;Humidity;BMP_temperature;BMP_pressure;BME280_temperature;BME280_humidity;BME280_pressure;Samples;Min_cycle;Max_cycle;Signal;HPM_P1;HPM_P2
2021/01/14 00:00:25;;;;;;;;;;;20.40;64.30;;;;;;5031960;28;19929;-64
2021/01/14 00:02:54;;;;;;;;;;;20.40;64.10;;;;;;5037919;28;19936;-65
2021/01/14 00:05:23;;;;;;;;;;;20.40;63.20;;;;;;5035351;28;20441;-61
2021/01/14 00:07:54;;;;;;;;;;;20.40;63.80;;;;;;5039992;28;20367;-62
2021/01/14 00:10:25;;;;;;;;;;;20.40;64.00;;;;;;5035547;28;19955;-62
2021/01/14 00:12:54;;;;;;;;;;;20.50;63.70;;;;;;5034746;28;19968;-61
2021/01/14 00:15:23;;;;;;;;;;;20.50;63.60;;;;;;5035553;28;20020;-60
2021/01/14 00:17:53;;;;;;;;;;;20.50;63.40;;;;;;5036622;28;19929;-63
2021/01/14 00:20:26;;;;;;;;;;;20.50;63.40;;;;;;5034144;28;20194;-63
2021/01/14 00:22:57;;;;;;;;;;;20.50;63.60;;;;;;5044494;28;19924;-62
2021/01/14 00:25:27;;;;;;;;;;;20.50;62.90;;;;;;5036188;28;20250;-62
2021/01/14 00:27:56;;;;;;;;;;;20.50;62.90;;;;;;5017615;28;19925;-62
2021/01/14 00:30:28;;;;;;;;;;;20.50;62.00;;;;;;5032132;28;19932;-62
2021/01/14 00:33:02;;;;;;;;;;;20.50;62.80;;;;;;5008005;28;19931;-63
2021/01/14 00:35:32;;;;;;;;;;;20.50;62.30;;;;;;5023558;28;20019;-63
2021/01/14 00:38:04;;;;;;;;;;;20.60;62.10;;;;;;5040498;28;19975;-62
2021/01/14 00:40:34;;;;;;;;;;;20.60;62.70;;;;;;5037458;28;20534;-60
2021/01/14 00:43:08;;;;;;;;;;;20.60;61.90;;;;;;5025548;28;20230;-61
2021/01/14 00:45:38;;;;;;;;;;;20.60;62.00;;;;;;5023156;28;20008;-62
2021/01/14 00:48:12;;;;;;;;;;;20.60;61.00;;;;;;5033988;28;19971;-62
2021/01/14 00:50:44;;;;;;;;;;;20.70;61.20;;;;;;5020435;28;19931;-61
2021/01/14 00:53:14;;;;;;;;;;;20.70;61.40;;;;;;5035986;28;19925;-60
2021/01/14 00:55:48;;;;;;;;;;;20.60;61.30;;;;;;5026996;28;20463;-62
2021/01/14 00:58:18;;;;;;;;;;;20.70;61.50;;;;;;5034681;28;19928;-61
2021/01/14 01:00:47;;;;;;;;;;;20.70;61.40;;;;;;5030140;28;20011;-62
2021/01/14 01:03:16;;;;;;;;;;;20.80;61.20;;;;;;5030518;28;20369;-61
2021/01/14 01:05:46;;;;;;;;;;;20.80;61.10;;;;;;5034463;28;19924;-61
2021/01/14 01:08:18;;;;;;;;;;;20.80;61.00;;;;;;5033858;28;20376;-60
2021/01/14 01:10:48;;;;;;;;;;;20.80;61.10;;;;;;5036039;28;19924;-59
2021/01/14 01:13:18;;;;;;;;;;;20.80;60.80;;;;;;5040376;28;20467;-56
2021/01/14 01:15:49;;;;;;;;;;;20.80;60.50;;;;;;5034525;28;20573;-60
2021/01/14 01:18:20;;;;;;;;;;;20.90;60.80;;;;;;5039009;28;19932;-61
2021/01/14 01:20:51;;;;;;;;;;;20.90;60.70;;;;;;5027841;28;19932;-61
2021/01/14 01:23:22;;;;;;;;;;;20.90;60.70;;;;;;5027230;28;19929;-61
2021/01/14 01:25:51;;;;;;;;;;;21.00;60.80;;;;;;5022265;28;19925;-61
2021/01/14 01:28:20;;;;;;;;;;;21.00;60.80;;;;;;5034049;28;20029;-61
2021/01/14 01:30:49;;;;;;;;;;;21.00;60.60;;;;;;5019009;28;19925;-61
2021/01/14 01:33:20;;;;;;;;;;;21.00;60.20;;;;;;5035411;28;20048;-61
2021/01/14 01:35:51;;;;;;;;;;;21.10;60.50;;;;;;5031138;28;19925;-61
2021/01/14 01:38:20;;;;;;;;;;;21.10;60.50;;;;;;5021014;28;19956;-61
2021/01/14 01:40:57;;;;;;;;;;;21.10;59.60;;;;;;5028625;28;19925;-61
2021/01/14 01:43:29;;;;;;;;;;;21.10;60.30;;;;;;5022385;28;19925;-62
2021/01/14 01:46:02;;;;;;;;;;;21.10;60.40;;;;;;5028986;28;19928;-61
2021/01/14 01:48:32;;;;;;;;;;;21.20;60.40;;;;;;5036897;28;19932;-61
2021/01/14 01:51:03;;;;;;;;;;;21.20;60.20;;;;;;5022648;28;19951;-61
2021/01/14 01:53:33;;;;;;;;;;;21.10;60.10;;;;;;5029480;28;20004;-61
2021/01/14 01:56:03;;;;;;;;;;;21.20;60.30;;;;;;5033169;28;19925;-61
2021/01/14 01:58:35;;;;;;;;;;;21.20;60.30;;;;;;5014956;28;19925;-60
2021/01/14 02:01:04;;;;;;;;;;;21.30;60.30;;;;;;5033252;28;19931;-61
2021/01/14 02:03:33;;;;;;;;;;;21.30;60.30;;;;;;5032158;28;19928;-61
2021/01/14 02:06:03;;;;;;;;;;;21.40;60.40;;;;;;5035938;28;19931;-61
2021/01/14 02:08:40;;;;;;;;;;;21.40;60.30;;;;;;5031330;28;19929;-60
2021/01/14 02:11:32;;;;;;;;;;;21.40;60.30;;;;;;5041071;28;19931;-61
2021/01/14 02:14:19;;;;;;;;;;;21.40;60.10;;;;;;5024068;28;19939;-61
2021/01/14 02:16:52;;;;;;;;;;;21.40;60.20;;;;;;5037119;28;19972;-61
2021/01/14 02:19:27;;;;;;;;;;;21.40;60.10;;;;;;5035788;28;20421;-60
2021/01/14 02:22:02;;;;;;;;;;;21.20;58.60;;;;;;5030440;28;20170;-61
2021/01/14 02:24:39;;;;;;;;;;;21.20;59.80;;;;;;5032891;28;19929;-61
2021/01/14 02:27:09;;;;;;;;;;;21.20;58.70;;;;;;5033062;28;19925;-61
2021/01/14 02:29:38;;;;;;;;;;;21.20;59.40;;;;;;5033261;28;19963;-61
2021/01/14 02:32:17;;;;;;;;;;;21.40;59.60;;;;;;5029469;28;19925;-61
2021/01/14 02:34:50;;;;;;;;;;;21.40;59.50;;;;;;5025341;28;19924;-61
2021/01/14 02:37:20;;;;;;;;;;;21.40;59.50;;;;;;5029892;28;20222;-61
2021/01/14 02:39:50;;;;;;;;;;;21.40;59.10;;;;;;5039394;28;19932;-61
2021/01/14 02:42:21;;;;;;;;;;;21.50;59.50;;;;;;5038558;28;19925;-61
2021/01/14 02:44:50;;;;;;;;;;;21.50;59.20;;;;;;5037099;28;19933;-61
2021/01/14 02:47:21;;;;;;;;;;;21.50;59.20;;;;;;5043109;28;19924;-61
2021/01/14 02:49:58;;;;;;;;;;;21.50;59.10;;;;;;5038371;28;19979;-62
2021/01/14 02:52:36;;;;;;;;;;;21.50;59.00;;;;;;5042771;28;19972;-60
2021/01/14 02:55:08;;;;;;;;;;;21.50;59.20;;;;;;5038033;28;19929;-61
2021/01/14 02:57:38;;;;;;;;;;;21.50;58.90;;;;;;5017199;28;19924;-61
2021/01/14 03:00:12;;;;;;;;;;;21.60;59.00;;;;;;5037783;28;20032;-60
2021/01/14 03:02:41;;;;;;;;;;;21.50;58.80;;;;;;5037858;28;20344;-60
2021/01/14 03:05:14;;;;;;;;;;;21.50;58.50;;;;;;5030480;28;19964;-60
2021/01/14 03:07:43;;;;;;;;;;;21.60;58.70;;;;;;5032443;28;20365;-60
2021/01/14 03:10:14;;;;;;;;;;;21.60;58.90;;;;;;5030904;28;19964;-61
2021/01/14 03:12:43;;;;;;;;;;;21.70;58.80;;;;;;5020048;28;20435;-61
2021/01/14 03:15:12;;;;;;;;;;;21.70;58.70;;;;;;5039828;28;19963;-61
2021/01/14 03:17:44;;;;;;;;;;;21.70;59.50;;;;;;5036402;28;19925;-61
2021/01/14 03:20:16;;;;;;;;;;;21.90;58.90;;;;;;5034221;28;20378;-60
2021/01/14 03:22:47;;;;;;;;;;;21.90;58.80;;;;;;5024814;28;19925;-60
2021/01/14 03:25:16;;;;;;;;;;;21.90;58.70;;;;;;5036018;28;19924;-60
2021/01/14 03:27:46;;;;;;;;;;;21.90;58.90;;;;;;5030352;28;19929;-63
2021/01/14 03:30:19;;;;;;;;;;;22.00;59.10;;;;;;5018500;28;20007;-62
2021/01/14 03:32:50;;;;;;;;;;;22.00;58.80;;;;;;5023699;28;19925;-61
2021/01/14 03:35:19;;;;;;;;;;;22.00;59.00;;;;;;5033607;28;19953;-63
2021/01/14 03:37:48;;;;;;;;;;;22.00;57.40;;;;;;5030877;28;20364;-62
2021/01/14 03:40:17;;;;;;;;;;;22.00;58.50;;;;;;5037272;28;19924;-61
2021/01/14 03:42:49;;;;;;;;;;;22.10;58.50;;;;;;5039263;28;19990;-62
2021/01/14 03:45:19;;;;;;;;;;;22.10;58.30;;;;;;5035789;28;19925;-61
2021/01/14 03:47:48;;;;;;;;;;;22.00;57.90;;;;;;5032384;28;19931;-60
2021/01/14 03:50:22;;;;;;;;;;;22.00;58.00;;;;;;5038440;28;20018;-60
2021/01/14 03:52:54;;;;;;;;;;;22.00;57.70;;;;;;5040382;28;19951;-60
2021/01/14 03:55:25;;;;;;;;;;;22.10;57.70;;;;;;5037711;28;20103;-63
2021/01/14 03:57:54;;;;;;;;;;;22.00;57.60;;;;;;5031757;28;19925;-61
2021/01/14 04:00:24;;;;;;;;;;;22.00;57.80;;;;;;5035932;28;19929;-60
2021/01/14 04:02:54;;;;;;;;;;;22.10;57.80;;;;;;5036970;28;19971;-60
2021/01/14 04:05:25;;;;;;;;;;;22.00;57.30;;;;;;5028191;28;19925;-60
2021/01/14 04:07:56;;;;;;;;;;;22.00;57.40;;;;;;5028517;28;19929;-66
2021/01/14 04:10:26;;;;;;;;;;;22.00;55.50;;;;;;5037171;28;19968;-61
2021/01/14 04:12:56;;;;;;;;;;;21.90;56.80;;;;;;5034773;28;19931;-61
2021/01/14 04:15:25;;;;;;;;;;;21.90;55.90;;;;;;5041833;28;19924;-61
2021/01/14 04:17:56;;;;;;;;;;;21.90;56.70;;;;;;5031969;28;20405;-60
2021/01/14 04:20:27;;;;;;;;;;;21.90;56.90;;;;;;5035558;28;20806;-61
2021/01/14 04:22:58;;;;;;;;;;;22.00;56.70;;;;;;5020696;28;19925;-64
2021/01/14 04:25:33;;;;;;;;;;;22.00;56.30;;;;;;5025084;28;19925;-61
2021/01/14 04:28:04;;;;;;;;;;;22.00;56.70;;;;;;5031174;28;20138;-61
2021/01/14 04:30:35;;;;;;;;;;;22.00;56.50;;;;;;5022225;28;19995;-60
2021/01/14 04:33:12;;;;;;;;;;;22.10;56.10;;;;;;5038920;28;19924;-61
2021/01/14 04:35:55;;;;;;;;;;;22.00;55.50;;;;;;5027325;28;19933;-64
2021/01/14 04:38:26;;;;;;;;;;;22.10;55.90;;;;;;5041016;28;19925;-65
2021/01/14 04:41:02;;;;;;;;;;;22.10;56.10;;;;;;5035004;28;19924;-61
2021/01/14 04:43:33;;;;;;;;;;;22.10;55.70;;;;;;5038965;28;19924;-61
2021/01/14 04:46:04;;;;;;;;;;;22.00;55.50;;;;;;5033303;28;19995;-61
2021/01/14 04:48:40;;;;;;;;;;;22.00;55.00;;;;;;5036907;28;19925;-61
2021/01/14 04:51:15;;;;;;;;;;;22.00;55.50;;;;;;5030701;28;19928;-60
2021/01/14 04:53:50;;;;;;;;;;;22.10;55.60;;;;;;5033819;28;19925;-65
2021/01/14 04:56:23;;;;;;;;;;;22.20;55.60;;;;;;5027000;28;20248;-61
2021/01/14 04:58:53;;;;;;;;;;;22.10;55.10;;;;;;5037980;28;19932;-61
2021/01/14 05:01:24;;;;;;;;;;;22.00;52.60;;;;;;5030195;28;19925;-64
2021/01/14 05:03:57;;;;;;;;;;;22.00;54.90;;;;;;5031004;28;20443;-61
2021/01/14 05:06:28;;;;;;;;;;;22.10;54.70;;;;;;5034591;28;19979;-59
2021/01/14 05:09:02;;;;;;;;;;;22.10;54.90;;;;;;5032683;28;19925;-64
2021/01/14 05:11:40;;;;;;;;;;;22.20;55.00;;;;;;5023263;28;20023;-58
2021/01/14 05:14:11;;;;;;;;;;;22.20;55.00;;;;;;5028011;28;19933;-63
2021/01/14 05:16:43;;;;;;;;;;;22.20;54.60;;;;;;5026845;28;19925;-59
2021/01/14 05:19:14;;;;;;;;;;;22.20;54.70;;;;;;5034994;28;19971;-59
2021/01/14 05:21:45;;;;;;;;;;;22.20;54.80;;;;;;5025978;28;20408;-60
2021/01/14 05:24:16;;;;;;;;;;;22.20;54.90;;;;;;5035175;28;19925;-60
2021/01/14 05:26:45;;;;;;;;;;;22.20;54.60;;;;;;5031144;28;19932;-59
2021/01/14 05:29:18;;;;;;;;;;;22.20;54.30;;;;;;5021469;28;20264;-59
2021/01/14 05:31:49;;;;;;;;;;;22.20;54.40;;;;;;5027928;28;19924;-63
2021/01/14 05:34:21;;;;;;;;;;;22.20;54.40;;;;;;5034606;28;19925;-62
2021/01/14 05:36:56;;;;;;;;;;;22.30;54.60;;;;;;5030672;28;19929;-63
2021/01/14 05:39:26;;;;;;;;;;;22.30;54.40;;;;;;5034666;28;20030;-62
2021/01/14 05:41:57;;;;;;;;;;;22.30;54.60;;;;;;5025344;28;19925;-62
2021/01/14 05:44:38;;;;;;;;;;;22.30;54.40;;;;;;5031260;28;19983;-59
2021/01/14 05:47:19;;;;;;;;;;;22.30;54.10;;;;;;5028094;28;19931;-63
2021/01/14 05:50:09;;;;;;;;;;;22.20;54.30;;;;;;5026915;28;20085;-59
2021/01/14 05:52:43;;;;;;;;;;;22.30;54.30;;;;;;5024004;28;19933;-63
2021/01/14 05:55:16;;;;;;;;;;;22.30;54.30;;;;;;5040080;28;19924;-64
2021/01/14 06:00:46;;;;;;;;;;;22.30;54.30;;;;;;5035749;28;19924;-63
2021/01/14 06:03:25;;;;;;;;;;;22.40;54.20;;;;;;5032109;28;19929;-64
2021/01/14 06:05:56;;;;;;;;;;;22.40;53.70;;;;;;5032500;28;20298;-64
2021/01/14 06:08:29;;;;;;;;;;;22.40;54.00;;;;;;5031150;28;19928;-64
2021/01/14 06:11:00;;;;;;;;;;;22.40;53.90;;;;;;5031265;28;19924;-64
2021/01/14 06:13:40;;;;;;;;;;;22.50;54.20;;;;;;5029859;28;19932;-65
2021/01/14 06:16:11;;;;;;;;;;;22.50;53.70;;;;;;5039532;28;20037;-64
2021/01/14 06:19:02;;;;;;;;;;;22.50;54.00;;;;;;5039214;28;20395;-64
2021/01/14 06:21:48;;;;;;;;;;;22.50;54.20;;;;;;5025974;28;20047;-64
2021/01/14 06:24:19;;;;;;;;;;;22.40;54.20;;;;;;5034102;28;19925;-64
2021/01/14 06:26:52;;;;;;;;;;;22.40;51.40;;;;;;5036733;28;19925;-64
2021/01/14 06:29:28;;;;;;;;;;;22.20;52.90;;;;;;5021205;28;19991;-65
2021/01/14 06:32:11;;;;;;;;;;;22.20;53.20;;;;;;5031850;28;19925;-63
2021/01/14 06:34:50;;;;;;;;;;;22.40;53.60;;;;;;5033417;28;19929;-63
2021/01/14 06:37:23;;;;;;;;;;;22.40;53.50;;;;;;5034845;28;20297;-63
2021/01/14 06:39:58;;;;;;;;;;;22.50;53.60;;;;;;5037205;28;19924;-63
2021/01/14 06:42:33;;;;;;;;;;;22.60;53.50;;;;;;5032991;28;19929;-63
2021/01/14 06:45:07;;;;;;;;;;;22.50;52.70;;;;;;5021307;28;20384;-63
2021/01/14 06:47:43;;;;;;;;;;;22.50;53.40;;;;;;5041386;28;19932;-63
2021/01/14 06:50:25;;;;;;;;;;;22.60;53.60;;;;;;5037021;28;19925;-64
2021/01/14 06:53:05;;;;;;;;;;;22.50;53.30;;;;;;5040470;28;19925;-65
2021/01/14 06:55:39;;;;;;;;;;;22.60;53.60;;;;;;5031255;28;19929;-63
2021/01/14 06:58:11;;;;;;;;;;;22.50;53.40;;;;;;5035043;28;20347;-64
2021/01/14 07:00:43;;;;;;;;;;;22.60;53.70;;;;;;5028711;28;20462;-63
2021/01/14 07:03:19;;;;;;;;;;;22.60;53.50;;;;;;4993877;28;19932;-63
2021/01/14 07:05:55;;;;;;;;;;;22.60;53.60;;;;;;5031443;28;20005;-62
2021/01/14 07:08:33;;;;;;;;;;;22.60;53.60;;;;;;5031867;28;19925;-62
2021/01/14 07:11:17;;;;;;;;;;;22.60;53.50;;;;;;5035723;28;19925;-62
2021/01/14 07:13:48;;;;;;;;;;;22.70;53.80;;;;;;5041671;28;19925;-62
2021/01/14 07:16:23;;;;;;;;;;;22.70;53.70;;;;;;5029766;28;19932;-61
2021/01/14 07:18:56;;;;;;;;;;;22.70;53.80;;;;;;5042431;28;19928;-62
2021/01/14 07:21:34;;;;;;;;;;;22.70;53.80;;;;;;5039803;28;20067;-63
2021/01/14 07:24:18;;;;;;;;;;;22.60;53.20;;;;;;5038782;28;19931;-62
2021/01/14 07:26:50;;;;;;;;;;;22.50;53.90;;;;;;5035069;28;19924;-62
2021/01/14 07:29:20;;;;;;;;;;;22.60;53.90;;;;;;5039055;28;19925;-62
2021/01/14 07:31:51;;;;;;;;;;;22.60;53.80;;;;;;5028595;28;19925;-61
2021/01/14 07:34:33;;;;;;;;;;;22.70;54.00;;;;;;5036649;28;19931;-62
2021/01/14 07:37:10;;;;;;;;;;;22.70;53.40;;;;;;5034124;28;19924;-62
2021/01/14 07:39:50;;;;;;;;;;;22.70;53.80;;;;;;5042670;28;19931;-62
2021/01/14 07:42:28;;;;;;;;;;;22.70;53.80;;;;;;5039306;28;19925;-62
2021/01/14 07:45:04;;;;;;;;;;;22.70;53.60;;;;;;5042062;28;19955;-62
2021/01/14 07:47:38;;;;;;;;;;;22.70;54.00;;;;;;5038365;28;20420;-63
2021/01/14 07:50:26;;;;;;;;;;;22.80;54.10;;;;;;5034166;28;19959;-62
2021/01/14 07:52:57;;;;;;;;;;;22.80;54.10;;;;;;5038863;28;20369;-62
2021/01/14 07:55:28;;;;;;;;;;;22.80;54.10;;;;;;5043213;28;20023;-61
2021/01/14 07:58:10;;;;;;;;;;;22.80;54.20;;;;;;5039317;28;19925;-62
2021/01/14 08:00:40;;;;;;;;;;;22.80;54.20;;;;;;5045000;28;20420;-62
2021/01/14 08:03:12;;;;;;;;;;;22.80;54.00;;;;;;5025559;28;20024;-63
2021/01/14 08:05:43;;;;;;;;;;;22.90;54.30;;;;;;5036308;28;19936;-63
2021/01/14 08:08:37;;;;;;;;;;;22.80;54.10;;;;;;5020471;28;20261;-62
2021/01/14 08:11:14;;;;;;;;;;;22.80;54.20;;;;;;5031195;28;20292;-63
2021/01/14 08:14:02;;;;;;;;;;;22.90;54.50;;;;;;5038091;28;19928;-64
2021/01/14 08:16:36;;;;;;;;;;;22.90;54.30;;;;;;5035834;28;20266;-61
2021/01/14 08:19:16;;;;;;;;;;;22.90;54.40;;;;;;5034998;28;20054;-63
2021/01/14 08:21:58;;;;;;;;;;;22.90;54.40;;;;;;5033524;28;19924;-62
2021/01/14 08:24:38;;;;;;;;;;;22.90;54.50;;;;;;5026088;28;19929;-61
2021/01/14 08:27:08;;;;;;;;;;;22.90;54.40;;;;;;5039009;28;20011;-61
2021/01/14 08:29:43;;;;;;;;;;;22.90;54.50;;;;;;5030927;28;19925;-62
2021/01/14 08:32:34;;;;;;;;;;;23.00;54.50;;;;;;5037562;28;20037;-63
2021/01/14 08:35:24;;;;;;;;;;;23.00;54.50;;;;;;5036463;28;20029;-61
2021/01/14 08:38:12;;;;;;;;;;;23.00;54.60;;;;;;5024017;28;20410;-62
2021/01/14 08:40:44;;;;;;;;;;;23.00;54.70;;;;;;5033531;28;19986;-62
2021/01/14 08:43:21;;;;;;;;;;;23.00;54.60;;;;;;5040871;28;19925;-63
2021/01/14 08:45:54;;;;;;;;;;;23.00;54.70;;;;;;5035286;28;20384;-62
2021/01/14 08:48:26;;;;;;;;;;;23.00;54.80;;;;;;5030111;28;19928;-64
2021/01/14 08:50:59;;;;;;;;;;;23.00;54.90;;;;;;5043216;28;19928;-63
2021/01/14 08:53:38;;;;;;;;;;;22.80;54.70;;;;;;5033390;28;20161;-62
2021/01/14 08:56:15;;;;;;;;;;;22.80;55.00;;;;;;5026996;28;19928;-62
2021/01/14 08:58:48;;;;;;;;;;;22.90;55.10;;;;;;5042553;28;20005;-62
2021/01/14 09:01:20;;;;;;;;;;;22.90;55.00;;;;;;5030372;28;19931;-62
2021/01/14 09:03:53;;;;;;;;;;;22.90;55.20;;;;;;5030890;28;19925;-65
2021/01/14 09:06:29;;;;;;;;;;;23.00;55.20;;;;;;5025464;28;20181;-62
2021/01/14 09:09:04;;;;;;;;;;;23.00;55.40;;;;;;5035062;28;19934;-64
2021/01/14 09:11:35;;;;;;;;;;;23.00;55.30;;;;;;5027915;28;20276;-64
2021/01/14 09:14:08;;;;;;;;;;;23.00;55.40;;;;;;5034015;28;20035;-65
2021/01/14 09:16:39;;;;;;;;;;;23.00;55.40;;;;;;5035049;28;19932;-66
2021/01/14 09:19:21;;;;;;;;;;;23.00;55.30;;;;;;5015259;28;19928;-64
2021/01/14 09:21:51;;;;;;;;;;;22.90;55.30;;;;;;5036654;28;20490;-64
2021/01/14 09:24:21;;;;;;;;;;;22.90;55.30;;;;;;5043887;28;19948;-61
2021/01/14 09:26:51;;;;;;;;;;;22.80;55.30;;;;;;5032277;28;19931;-61
2021/01/14 09:29:28;;;;;;;;;;;22.80;55.40;;;;;;5034537;28;21990;-62
2021/01/14 09:32:11;;;;;;;;;;;22.80;55.40;;;;;;5016838;28;19949;-62
2021/01/14 09:34:41;;;;;;;;;;;22.70;55.40;;;;;;5041706;28;20433;-62
2021/01/14 09:37:20;;;;;;;;;;;22.70;55.30;;;;;;5038045;28;19925;-61
2021/01/14 09:39:49;;;;;;;;;;;22.70;55.30;;;;;;5042512;28;19932;-60
2021/01/14 09:42:19;;;;;;;;;;;22.60;55.00;;;;;;5038576;28;20364;-61
2021/01/14 09:44:48;;;;;;;;;;;22.40;54.90;;;;;;5037818;28;19946;-62
2021/01/14 09:47:17;;;;;;;;;;;22.30;55.20;;;;;;5028095;28;19933;-62
2021/01/14 09:49:49;;;;;;;;;;;22.40;55.00;;;;;;5027475;28;19987;-62
2021/01/14 09:52:26;;;;;;;;;;;22.30;54.70;;;;;;5029781;28;19990;-64
2021/01/14 09:54:59;;;;;;;;;;;22.20;55.00;;;;;;5041023;28;20372;-61
2021/01/14 09:57:31;;;;;;;;;;;22.30;55.00;;;;;;5037175;28;19925;-61
2021/01/14 10:00:02;;;;;;;;;;;22.00;54.40;;;;;;5036207;28;19931;-60
2021/01/14 10:02:36;;;;;;;;;;;22.00;54.30;;;;;;5033366;28;20290;-61
2021/01/14 10:05:11;;;;;;;;;;;21.90;54.50;;;;;;5012537;28;20452;-62
2021/01/14 10:08:00;;;;;;;;;;;21.60;54.30;;;;;;5037224;28;19924;-62
2021/01/14 10:10:31;;;;;;;;;;;21.50;55.10;;;;;;5036976;28;19924;-61
2021/01/14 10:13:01;;;;;;;;;;;21.30;55.00;;;;;;5034289;28;19924;-62
2021/01/14 10:15:33;;;;;;;;;;;21.20;55.20;;;;;;5039627;28;20446;-61
2021/01/14 10:18:04;;;;;;;;;;;21.10;55.60;;;;;;5036854;28;19925;-61
2021/01/14 10:20:35;;;;;;;;;;;21.10;55.80;;;;;;5042795;28;19924;-62
2021/01/14 10:23:06;;;;;;;;;;;21.00;56.10;;;;;;5042857;28;20015;-62
2021/01/14 10:25:35;;;;;;;;;;;20.90;56.60;;;;;;5041274;28;20240;-61
2021/01/14 10:28:07;;;;;;;;;;;20.90;56.70;;;;;;5039785;28;19925;-61
2021/01/14 10:30:41;;;;;;;;;;;20.90;56.90;;;;;;5042228;28;19936;-61
2021/01/14 10:33:15;;;;;;;;;;;20.90;57.10;;;;;;5037588;28;19929;-61
2021/01/14 10:35:53;;;;;;;;;;;20.70;57.30;;;;;;5042205;28;19924;-61
2021/01/14 10:38:22;;;;;;;;;;;20.60;57.50;;;;;;5036999;28;19966;-62
2021/01/14 10:40:51;;;;;;;;;;;20.20;58.40;;;;;;5043577;28;20158;-61
2021/01/14 10:43:35;;;;;;;;;;;20.30;59.10;;;;;;5036528;28;20209;-63
2021/01/14 10:46:06;;;;;;;;;;;20.20;60.00;;;;;;5041834;28;19955;-62
2021/01/14 10:48:38;;;;;;;;;;;20.10;60.10;;;;;;5040922;28;20171;-67
2021/01/14 10:51:10;;;;;;;;;;;19.90;60.10;;;;;;5041381;28;19933;-65
2021/01/14 10:53:41;;;;;;;;;;;19.90;60.50;;;;;;5039980;28;20014;-65
2021/01/14 10:56:13;;;;;;;;;;;19.80;61.00;;;;;;5040214;28;20007;-61
2021/01/14 10:58:43;;;;;;;;;;;19.80;61.30;;;;;;5040688;28;19925;-68
2021/01/14 11:01:15;;;;;;;;;;;19.80;61.60;;;;;;5041979;28;20223;-64
2021/01/14 11:03:47;;;;;;;;;;;19.70;62.20;;;;;;5032885;28;20369;-61
2021/01/14 11:06:30;;;;;;;;;;;19.80;62.50;;;;;;5034632;28;20063;-65
2021/01/14 11:09:06;;;;;;;;;;;19.80;62.80;;;;;;5034641;28;19925;-60
2021/01/14 11:11:36;;;;;;;;;;;19.60;63.10;;;;;;5033218;28;19925;-63
2021/01/14 11:14:06;;;;;;;;;;;19.60;63.10;;;;;;5027967;28;19933;-63
2021/01/14 11:16:38;;;;;;;;;;;19.60;63.20;;;;;;5042052;28;19947;-62
2021/01/14 11:19:10;;;;;;;;;;;19.70;63.20;;;;;;5023466;28;19928;-62
2021/01/14 11:21:42;;;;;;;;;;;19.60;63.30;;;;;;5030886;28;19928;-63
2021/01/14 11:24:14;;;;;;;;;;;19.50;63.10;;;;;;5037349;28;20400;-62
2021/01/14 11:26:46;;;;;;;;;;;19.10;63.50;;;;;;5024485;28;20307;-63
2021/01/14 11:29:16;;;;;;;;;;;19.10;64.50;;;;;;5034735;28;19924;-65
2021/01/14 11:31:48;;;;;;;;;;;19.10;64.60;;;;;;5040962;28;20372;-61
2021/01/14 11:34:18;;;;;;;;;;;19.20;65.00;;;;;;5042201;28;20585;-66
2021/01/14 11:36:47;;;;;;;;;;;19.30;64.80;;;;;;5040649;28;20062;-65
2021/01/14 11:39:16;;;;;;;;;;;19.30;64.90;;;;;;5042585;28;19924;-65
2021/01/14 11:41:46;;;;;;;;;;;19.40;65.10;;;;;;5035677;28;19960;-65
2021/01/14 11:44:18;;;;;;;;;;;19.40;65.20;;;;;;5041226;28;19929;-65
2021/01/14 11:46:48;;;;;;;;;;;19.20;65.10;;;;;;5038007;28;19929;-65
2021/01/14 11:49:18;;;;;;;;;;;19.00;65.70;;;;;;5035003;28;19932;-66
2021/01/14 11:51:50;;;;;;;;;;;18.90;65.70;;;;;;5033042;28;19921;-66
2021/01/14 11:54:22;;;;;;;;;;;18.90;66.00;;;;;;5040970;28;20475;-65
2021/01/14 11:56:54;;;;;;;;;;;19.00;66.30;;;;;;5021512;28;19979;-65
2021/01/14 11:59:23;;;;;;;;;;;19.00;66.10;;;;;;5031281;28;20546;-62
2021/01/14 12:01:57;;;;;;;;;;;19.00;66.40;;;;;;5028697;28;19932;-66
2021/01/14 12:04:31;;;;;;;;;;;18.90;66.10;;;;;;5029387;28;19978;-69
2021/01/14 12:07:03;;;;;;;;;;;19.00;66.50;;;;;;5040369;28;20423;-67
2021/01/14 12:09:35;;;;;;;;;;;19.00;66.80;;;;;;5039533;28;19932;-67
2021/01/14 12:12:04;;;;;;;;;;;19.00;66.70;;;;;;5037201;28;19925;-67
2021/01/14 12:14:34;;;;;;;;;;;19.10;66.50;;;;;;5036067;28;19928;-62
2021/01/14 12:17:06;;;;;;;;;;;18.90;66.30;;;;;;4995502;28;19932;-62
2021/01/14 12:19:38;;;;;;;;;;;18.90;66.60;;;;;;5038480;28;19932;-68
2021/01/14 12:22:08;;;;;;;;;;;18.70;66.50;;;;;;5022606;28;19964;-69
2021/01/14 12:24:39;;;;;;;;;;;18.80;67.20;;;;;;5038922;28;19924;-68
2021/01/14 12:27:09;;;;;;;;;;;18.60;67.10;;;;;;5034041;28;19966;-60
2021/01/14 12:29:39;;;;;;;;;;;18.60;67.60;;;;;;5040291;28;20466;-68
2021/01/14 12:32:11;;;;;;;;;;;18.60;67.80;;;;;;5036796;28;19978;-62
2021/01/14 12:34:41;;;;;;;;;;;18.80;68.20;;;;;;5035597;28;20175;-62
2021/01/14 12:37:11;;;;;;;;;;;18.90;68.20;;;;;;5041141;28;20373;-68
2021/01/14 12:39:40;;;;;;;;;;;18.90;67.50;;;;;;5038245;28;19924;-61
2021/01/14 12:42:10;;;;;;;;;;;18.70;67.60;;;;;;5042221;28;20277;-67
2021/01/14 12:44:39;;;;;;;;;;;18.80;68.00;;;;;;5039651;28;19925;-68
2021/01/14 12:47:09;;;;;;;;;;;18.70;67.00;;;;;;5036664;28;19936;-69
2021/01/14 12:49:39;;;;;;;;;;;18.70;67.80;;;;;;5036518;28;19929;-68
2021/01/14 12:52:09;;;;;;;;;;;18.60;67.30;;;;;;5037185;28;19931;-61
2021/01/14 12:54:40;;;;;;;;;;;18.50;67.70;;;;;;5028356;28;19995;-66
2021/01/14 12:57:10;;;;;;;;;;;18.40;68.00;;;;;;5038240;28;19925;-68
2021/01/14 12:59:39;;;;;;;;;;;18.50;68.20;;;;;;5037174;28;20168;-68
2021/01/14 13:02:08;;;;;;;;;;;18.50;67.90;;;;;;5041297;28;19968;-62
2021/01/14 13:04:39;;;;;;;;;;;18.10;67.50;;;;;;5031656;28;19936;-68
2021/01/14 13:07:09;;;;;;;;;;;18.00;68.10;;;;;;5041824;28;19947;-67
2021/01/14 13:09:41;;;;;;;;;;;18.00;68.70;;;;;;5014267;28;20721;-67
2021/01/14 13:12:10;;;;;;;;;;;18.10;68.90;;;;;;5031838;28;20373;-67
2021/01/14 13:14:40;;;;;;;;;;;18.20;69.20;;;;;;5039130;28;19924;-67
2021/01/14 13:17:11;;;;;;;;;;;18.00;68.40;;;;;;5031927;28;20305;-68
2021/01/14 13:19:43;;;;;;;;;;;17.90;68.80;;;;;;5028212;28;19929;-62
2021/01/14 13:22:13;;;;;;;;;;;17.90;69.80;;;;;;5032881;28;19925;-63
2021/01/14 13:24:42;;;;;;;;;;;18.00;69.90;;;;;;5030184;28;20024;-67
2021/01/14 13:27:13;;;;;;;;;;;18.10;70.00;;;;;;5020596;28;19940;-67
2021/01/14 13:29:43;;;;;;;;;;;18.20;70.00;;;;;;5033422;28;20027;-67
2021/01/14 13:32:15;;;;;;;;;;;18.30;69.80;;;;;;5036155;28;19921;-67
2021/01/14 13:34:44;;;;;;;;;;;18.30;69.30;;;;;;5036337;28;19940;-67
2021/01/14 13:37:15;;;;;;;;;;;18.40;69.10;;;;;;5028702;28;20020;-67
2021/01/14 13:39:44;;;;;;;;;;;18.30;69.10;;;;;;5032956;28;20414;-67
2021/01/14 13:42:14;;;;;;;;;;;18.20;68.00;;;;;;5034316;28;19925;-66
2021/01/14 13:44:44;;;;;;;;;;;18.20;69.10;;;;;;5039890;28;19925;-64
2021/01/14 13:47:14;;;;;;;;;;;18.20;68.80;;;;;;5034027;28;19925;-60
2021/01/14 13:49:45;;;;;;;;;;;18.30;69.00;;;;;;5038814;28;20022;-67
2021/01/14 13:52:15;;;;;;;;;;;18.30;68.70;;;;;;5030143;28;19931;-70
2021/01/14 13:54:46;;;;;;;;;;;18.30;68.80;;;;;;5031928;28;20033;-67
2021/01/14 13:57:15;;;;;;;;;;;18.40;68.70;;;;;;5032696;28;19935;-64
2021/01/14 13:59:44;;;;;;;;;;;18.40;68.60;;;;;;5034290;28;19925;-66
2021/01/14 14:02:13;;;;;;;;;;;18.20;68.40;;;;;;5042521;28;19924;-66
2021/01/14 14:04:44;;;;;;;;;;;18.10;67.70;;;;;;5029204;28;19955;-62
2021/01/14 14:07:16;;;;;;;;;;;18.00;68.40;;;;;;5028079;28;19931;-67
2021/01/14 14:09:47;;;;;;;;;;;17.90;68.60;;;;;;5042890;28;19931;-62
2021/01/14 14:12:18;;;;;;;;;;;17.80;69.00;;;;;;5028240;28;19924;-62
2021/01/14 14:14:48;;;;;;;;;;;17.80;69.30;;;;;;5044408;28;19928;-62
2021/01/14 14:17:22;;;;;;;;;;;17.90;69.60;;;;;;5036400;28;20036;-61
2021/01/14 14:19:52;;;;;;;;;;;17.90;69.30;;;;;;5044436;28;20380;-61
2021/01/14 14:22:22;;;;;;;;;;;18.00;69.30;;;;;;5029262;28;19925;-63
2021/01/14 14:24:53;;;;;;;;;;;17.90;68.90;;;;;;5043475;28;19928;-63
2021/01/14 14:27:23;;;;;;;;;;;17.90;69.10;;;;;;5038442;28;20404;-62
2021/01/14 14:29:55;;;;;;;;;;;17.90;69.10;;;;;;5031825;28;20308;-61
2021/01/14 14:32:27;;;;;;;;;;;17.90;69.00;;;;;;5038329;28;19925;-64
2021/01/14 14:34:56;;;;;;;;;;;18.00;68.90;;;;;;5047104;28;19979;-59
2021/01/14 14:37:26;;;;;;;;;;;17.90;68.70;;;;;;5032257;28;20028;-65
2021/01/14 14:39:55;;;;;;;;;;;18.00;68.70;;;;;;5035524;28;20372;-64
2021/01/14 14:42:29;;;;;;;;;;;18.00;68.90;;;;;;5030734;28;19994;-66
2021/01/14 14:45:00;;;;;;;;;;;18.00;68.30;;;;;;5043588;28;20507;-57
2021/01/14 14:47:47;;;;;;;;;;;18.10;69.10;;;;;;5030540;28;19951;-66
2021/01/14 14:50:19;;;;;;;;;;;18.30;68.80;;;;;;5032678;28;20385;-65